createdAt,value
2022-12-28T05:05:50.570Z,100355.25
2022-12-28T05:08:17.108Z,100316.94
2022-12-28T05:10:43.682Z,100313.22
2022-12-28T05:13:10.234Z,100320.66
2022-12-28T05:15:37.941Z,100301.09
2022-12-28T05:18:04.471Z,100298.00
2022-12-28T05:20:30.997Z,100289.13
2022-12-28T05:22:57.567Z,100298.63
2022-12-28T05:25:24.265Z,100284.41
2022-12-28T05:27:50.865Z,100280.06
2022-12-28T05:30:17.775Z,100266.06
2022-12-28T05:32:44.302Z,100281.09
2022-12-28T05:35:10.806Z,100277.59
2022-12-28T05:37:37.277Z,100278.63
2022-12-28T05:40:03.926Z,100284.19
2022-12-28T05:42:30.352Z,100280.06
2022-12-28T05:44:56.815Z,100270.38
2022-12-28T05:47:23.330Z,100258.84
2022-12-28T05:49:49.911Z,100268.75
2022-12-28T05:52:16.403Z,100275.94
2022-12-28T05:54:42.890Z,100266.69
2022-12-28T05:57:09.343Z,100271.22
2022-12-28T05:59:35.897Z,100293.06
2022-12-28T06:02:02.592Z,100275.56
2022-12-28T06:04:29.201Z,100278.66
2022-12-28T06:06:55.728Z,100286.25
2022-12-28T06:09:22.201Z,100281.50
2022-12-28T06:11:48.694Z,100274.50
2022-12-28T06:14:15.348Z,100265.41
2022-12-28T06:16:42.746Z,100267.91
2022-12-28T06:19:11.492Z,100262.34
2022-12-28T06:21:39.795Z,100252.00
2022-12-28T06:24:06.656Z,100266.63
2022-12-28T06:26:34.918Z,100261.28
2022-12-28T06:29:04.291Z,100244.16
2022-12-28T06:31:32.072Z,100255.94
2022-12-28T06:33:59.414Z,100246.00
2022-12-28T06:36:30.756Z,100241.22
2022-12-28T06:38:58.405Z,100250.13
2022-12-28T06:41:25.269Z,100255.03
2022-12-28T06:43:52.464Z,100238.34
2022-12-28T06:46:19.972Z,100230.69
2022-12-28T06:48:46.809Z,100229.03
2022-12-28T06:51:14.811Z,100232.13
2022-12-28T06:53:41.792Z,100224.25
2022-12-28T06:56:28.518Z,100225.28
2022-12-28T06:59:02.063Z,100223.22
2022-12-28T07:01:33.570Z,100221.97
2022-12-28T07:04:00.475Z,100208.81
2022-12-28T07:06:28.151Z,100210.44
2022-12-28T07:09:05.025Z,100216.41
2022-12-28T07:11:31.688Z,100203.81
2022-12-28T07:13:58.590Z,100207.56
2022-12-28T07:16:25.939Z,100210.81
2022-12-28T07:18:52.642Z,100207.16
2022-12-28T07:21:21.562Z,100205.50
2022-12-28T07:23:48.897Z,100186.16
2022-12-28T07:26:16.730Z,100179.50
2022-12-28T07:28:44.742Z,100213.72
2022-12-28T07:31:14.520Z,100200.09
2022-12-28T07:33:41.241Z,100211.22
2022-12-28T07:36:08.835Z,100189.78
2022-12-28T07:38:35.749Z,100207.94
2022-12-28T07:41:06.994Z,100191.22
2022-12-28T07:43:33.956Z,100253.25
2022-12-28T07:46:01.790Z,100215.75
2022-12-28T07:48:29.690Z,100195.16
2022-12-28T07:50:56.500Z,100202.16
2022-12-28T07:53:22.950Z,100206.03
2022-12-28T07:55:58.889Z,100192.19
2022-12-28T07:58:25.426Z,100176.34
2022-12-28T08:00:51.945Z,100192.66
2022-12-28T08:03:19.185Z,100180.91
2022-12-28T08:05:45.733Z,100191.34
2022-12-28T08:08:12.432Z,100177.72
2022-12-28T08:10:38.928Z,100185.38
2022-12-28T08:13:05.406Z,100187.59
2022-12-28T08:15:31.894Z,100194.78
2022-12-28T08:17:59.066Z,100173.44
2022-12-28T08:20:26.044Z,100188.03
2022-12-28T08:22:52.428Z,100170.06
2022-12-28T08:25:18.970Z,100187.94
2022-12-28T08:27:45.369Z,100170.59
2022-12-28T08:30:12.133Z,100186.06
2022-12-28T08:32:40.925Z,100214.06
2022-12-28T08:35:09.829Z,100177.50
2022-12-28T08:37:37.975Z,100179.97
2022-12-28T08:40:04.661Z,100195.59
2022-12-28T08:42:31.177Z,100195.53
2022-12-28T08:44:57.593Z,100176.72
2022-12-28T08:47:24.054Z,100177.72
2022-12-28T08:49:50.475Z,100170.03
2022-12-28T08:52:17.030Z,100163.41
2022-12-28T08:54:43.485Z,100175.31
2022-12-28T08:57:09.957Z,100185.03
2022-12-28T08:59:36.391Z,100183.47
2022-12-28T09:02:02.969Z,100183.63
2022-12-28T09:04:29.741Z,100179.91
2022-12-28T09:06:56.191Z,100181.72
2022-12-28T09:09:22.709Z,100174.84
2022-12-28T09:11:49.251Z,100181.44
2022-12-28T09:14:22.710Z,100188.88
2022-12-28T09:16:49.903Z,100187.53
2022-12-28T09:19:16.450Z,100187.53
2022-12-28T09:21:44.907Z,100199.94
2022-12-28T09:24:12.529Z,100201.97
2022-12-28T09:26:39.048Z,100195.09
2022-12-28T09:29:07.223Z,100206.03
2022-12-28T09:31:37.135Z,100210.53
2022-12-28T09:36:51.266Z,100201.81
2022-12-28T09:39:19.461Z,100203.00
2022-12-28T09:41:46.225Z,100205.91
2022-12-28T09:44:12.617Z,100197.78
2022-12-28T09:46:48.659Z,100202.53
2022-12-28T09:49:16.389Z,100193.78
2022-12-28T09:51:55.385Z,100198.13
2022-12-28T09:54:21.900Z,100196.88
2022-12-28T09:59:21.247Z,100190.31
2022-12-28T10:01:52.486Z,100191.50
2022-12-28T10:04:18.958Z,100200.97
2022-12-28T10:06:45.480Z,100196.19
2022-12-28T10:09:16.338Z,100198.28
2022-12-28T10:11:43.709Z,100190.00
2022-12-28T10:14:16.080Z,100187.16
2022-12-28T10:16:48.359Z,100190.84
2022-12-28T10:19:19.482Z,100186.25
2022-12-28T10:21:46.615Z,100184.19
2022-12-28T10:27:01.629Z,100187.69
2022-12-28T10:29:31.298Z,100195.28
2022-12-28T10:32:02.042Z,100182.31
2022-12-28T10:34:36.725Z,100178.13
2022-12-28T10:37:17.340Z,100172.50
2022-12-28T10:39:51.840Z,100173.56
2022-12-28T10:42:37.168Z,100165.72
2022-12-28T10:45:07.889Z,100161.78
2022-12-28T10:47:36.887Z,100171.25
2022-12-28T10:50:36.826Z,100172.88
2022-12-28T10:52:58.093Z,100200.56
2022-12-28T10:55:32.005Z,100160.03
2022-12-28T10:58:29.644Z,100162.72
2022-12-28T11:01:18.075Z,100157.56
2022-12-28T11:03:44.616Z,100161.44
2022-12-28T11:06:26.304Z,100158.56
2022-12-28T11:08:59.940Z,100152.56
2022-12-28T11:11:26.468Z,100155.88
2022-12-28T11:13:57.707Z,100148.63
2022-12-28T11:16:24.212Z,100145.94
2022-12-28T11:18:52.342Z,100148.16
2022-12-28T11:21:20.277Z,100137.88
2022-12-28T11:23:49.538Z,100141.97
2022-12-28T11:26:16.747Z,100133.91
2022-12-28T11:28:45.336Z,100122.13
2022-12-28T11:31:22.933Z,100133.44
2022-12-28T11:33:51.754Z,100125.38
2022-12-28T11:36:19.888Z,100125.97
2022-12-28T11:38:48.207Z,100117.31
2022-12-28T11:41:25.539Z,100113.59
2022-12-28T11:44:06.421Z,100119.75
2022-12-28T11:46:35.717Z,100124.47
2022-12-28T11:49:22.521Z,100113.22
2022-12-28T11:52:08.901Z,100099.81
2022-12-28T11:54:40.193Z,100100.19
2022-12-28T11:57:08.238Z,100106.97
2022-12-28T11:59:35.747Z,100105.31
2022-12-28T12:02:08.388Z,100100.97
2022-12-28T12:04:39.149Z,100095.75
2022-12-28T12:07:05.702Z,100087.19
2022-12-28T12:09:33.913Z,100093.19
2022-12-28T12:12:01.510Z,100090.25
2022-12-28T12:14:31.139Z,100090.63
2022-12-28T12:17:03.530Z,100078.81
2022-12-28T12:19:33.789Z,100085.00
2022-12-28T12:22:09.501Z,100076.69
2022-12-28T12:24:41.481Z,100075.19
2022-12-28T12:27:15.889Z,100079.88
2022-12-28T12:29:47.118Z,100072.16
2022-12-28T12:32:13.687Z,100067.13
2022-12-28T12:34:46.195Z,100070.19
2022-12-28T12:37:15.878Z,100072.41
2022-12-28T12:39:54.527Z,100069.25
2022-12-28T12:42:30.201Z,100074.16
2022-12-28T12:45:01.423Z,100073.13
2022-12-28T12:47:46.424Z,100062.44
2022-12-28T12:50:12.945Z,100073.59
2022-12-28T12:52:51.607Z,100068.81
2022-12-28T12:55:36.745Z,100066.44
2022-12-28T12:58:12.322Z,100063.31
2022-12-28T13:00:48.988Z,100067.97
2022-12-28T13:03:29.430Z,100058.03
2022-12-28T13:05:59.393Z,100052.66
2022-12-28T13:08:35.798Z,100054.28
2022-12-28T13:11:02.574Z,100054.63
2022-12-28T13:13:33.118Z,100052.28
2022-12-28T13:16:02.312Z,100042.94
2022-12-28T13:18:45.485Z,100036.25
2022-12-28T13:21:18.145Z,100036.25
2022-12-28T13:23:45.403Z,100034.13
2022-12-28T13:26:13.201Z,100023.34
2022-12-28T13:28:46.418Z,100031.19
2022-12-28T13:31:36.005Z,100017.53
2022-12-28T13:34:05.503Z,100015.16
2022-12-28T13:36:32.236Z,100016.00
2022-12-28T13:39:09.998Z,100029.22
2022-12-28T13:41:37.460Z,100019.72
2022-12-28T13:44:13.055Z,100017.03
2022-12-28T13:46:41.039Z,100018.19
2022-12-28T13:49:07.888Z,100023.56
2022-12-28T13:51:38.794Z,100022.41
2022-12-28T13:54:05.883Z,100020.66
2022-12-28T13:56:33.843Z,100014.84
2022-12-28T13:59:02.999Z,100011.41
2022-12-28T14:01:33.578Z,100016.56
2022-12-28T14:04:50.530Z,100006.38
2022-12-28T14:06:57.039Z,100007.44
2022-12-28T14:09:23.825Z,100008.22
2022-12-28T14:11:50.999Z,100000.50
2022-12-28T14:14:17.994Z,99998.31
2022-12-28T14:16:44.771Z,99998.63
2022-12-28T14:19:11.838Z,99993.59
2022-12-28T14:21:42.833Z,99998.63
2022-12-28T14:24:10.800Z,99986.56
2022-12-28T14:26:39.471Z,99985.75
2022-12-28T14:29:11.923Z,99984.94
2022-12-28T14:31:39.135Z,99974.84
2022-12-28T14:34:06.723Z,99977.28
2022-12-28T14:36:39.358Z,99970.50
2022-12-28T14:39:06.627Z,99973.78
2022-12-28T14:41:35.654Z,99963.56
2022-12-28T14:44:03.773Z,99959.84
2022-12-28T14:46:30.428Z,99961.13
2022-12-28T14:48:57.305Z,99969.78
2022-12-28T14:51:31.610Z,99965.22
2022-12-28T14:54:13.363Z,99963.69
2022-12-28T14:56:40.236Z,99977.63
2022-12-28T14:59:15.318Z,100000.13
2022-12-28T15:01:43.146Z,99978.19
2022-12-28T15:04:24.185Z,99971.75
2022-12-28T15:06:50.673Z,99974.53
2022-12-28T15:09:17.793Z,99963.44
2022-12-28T15:11:46.106Z,100002.91
2022-12-28T15:14:12.843Z,99969.16
2022-12-28T15:16:39.364Z,99970.94
2022-12-28T15:19:05.900Z,99970.94
2022-12-28T15:21:33.468Z,99978.13
2022-12-28T15:23:59.962Z,99982.53
2022-12-28T15:26:29.477Z,99978.78
2022-12-28T15:28:55.966Z,99982.53
2022-12-28T15:31:22.520Z,99976.00
2022-12-28T15:33:48.987Z,99956.75
2022-12-28T15:36:17.917Z,99958.53
2022-12-28T15:38:45.364Z,99963.13
2022-12-28T15:41:30.616Z,99974.69
2022-12-28T15:43:57.082Z,99966.38
2022-12-28T15:46:23.612Z,99969.66
2022-12-28T15:48:50.064Z,99976.69
2022-12-28T15:51:17.158Z,99975.03
2022-12-28T15:53:43.942Z,99974.78
2022-12-28T15:56:22.312Z,99982.53
2022-12-28T15:58:48.733Z,99974.78
2022-12-28T16:01:15.399Z,99977.97
2022-12-28T16:03:41.934Z,99965.91
2022-12-28T16:06:08.377Z,99953.50
2022-12-28T16:08:34.852Z,99948.91
2022-12-28T16:11:08.468Z,99949.75
2022-12-28T16:13:34.889Z,99943.88
2022-12-28T16:16:08.087Z,99945.50
2022-12-28T16:18:34.651Z,99933.09
2022-12-28T16:21:05.270Z,99927.47
2022-12-28T16:23:34.615Z,99912.69
2022-12-28T16:26:01.075Z,99910.56
2022-12-28T16:28:28.089Z,99927.81
2022-12-28T16:30:54.945Z,99916.78
2022-12-28T16:33:22.000Z,99912.19
2022-12-28T16:35:51.915Z,99890.66
2022-12-28T16:38:29.743Z,99898.47
2022-12-28T16:40:57.108Z,99908.22
2022-12-28T16:43:23.978Z,99893.94
2022-12-28T16:45:50.712Z,99877.19
2022-12-28T16:48:17.182Z,99886.31
2022-12-28T16:50:43.844Z,99905.13
2022-12-28T16:53:10.295Z,99898.34
2022-12-28T16:55:41.225Z,99901.34
2022-12-28T16:58:07.897Z,99872.78
2022-12-28T17:00:34.397Z,99879.22
2022-12-28T17:03:00.948Z,99874.34
2022-12-28T17:05:27.576Z,99889.41
2022-12-28T17:07:54.066Z,99888.88
2022-12-28T17:10:20.693Z,99866.47
2022-12-28T17:12:47.099Z,99870.81
2022-12-28T17:15:13.825Z,99856.78
2022-12-28T17:17:40.416Z,99862.41
2022-12-28T17:20:06.997Z,99849.44
2022-12-28T17:22:33.707Z,99855.78
2022-12-28T17:25:00.300Z,99859.31
2022-12-28T17:27:26.925Z,99860.00
2022-12-28T17:29:53.369Z,99864.59
2022-12-28T17:32:19.855Z,99854.56
2022-12-28T17:34:46.454Z,99854.00
2022-12-28T17:37:12.901Z,99848.50
2022-12-28T17:39:40.515Z,99842.31
2022-12-28T17:42:07.366Z,99835.78
2022-12-28T17:44:33.819Z,99822.00
2022-12-28T17:47:00.442Z,99849.47
2022-12-28T17:49:26.859Z,99837.56
2022-12-28T17:51:53.278Z,99824.03
2022-12-28T17:54:19.747Z,99816.50
2022-12-28T17:56:46.174Z,99831.50
2022-12-28T17:59:16.396Z,99822.63
2022-12-28T18:01:43.072Z,99806.72
2022-12-28T18:04:10.296Z,99812.59
2022-12-28T18:06:36.737Z,99801.81
2022-12-28T18:09:03.352Z,99791.88
2022-12-28T18:11:29.815Z,99807.09
2022-12-28T18:13:59.011Z,99786.16
2022-12-28T18:16:26.138Z,99777.84
2022-12-28T18:18:52.727Z,99778.09
2022-12-28T18:21:22.012Z,99764.66
2022-12-28T18:23:49.643Z,99763.59
2022-12-28T18:26:17.852Z,99759.00
2022-12-28T18:28:44.367Z,99768.88
2022-12-28T18:31:10.895Z,99750.69
2022-12-28T18:33:37.408Z,99741.47
2022-12-28T18:36:05.019Z,99745.31
2022-12-28T18:38:31.717Z,99735.94
2022-12-28T18:40:58.339Z,99736.75
2022-12-28T18:43:25.421Z,99730.91
2022-12-28T18:46:02.822Z,99713.91
2022-12-28T18:48:29.928Z,99725.03
2022-12-28T18:50:58.224Z,99745.50
2022-12-28T18:53:25.967Z,99710.50
2022-12-28T18:55:56.205Z,99707.81
2022-12-28T18:58:22.642Z,99707.31
2022-12-28T19:00:49.088Z,99695.50
2022-12-28T19:03:15.633Z,99683.09
2022-12-28T19:05:42.192Z,99689.06
2022-12-28T19:08:08.637Z,99683.09
2022-12-28T19:10:35.119Z,99698.75
2022-12-28T19:13:01.549Z,99685.88
2022-12-28T19:15:30.156Z,99683.69
2022-12-28T19:17:56.657Z,99676.75
2022-12-28T19:20:23.815Z,99681.88
2022-12-28T19:22:50.279Z,99681.97
2022-12-28T19:25:16.813Z,99662.78
2022-12-28T19:27:43.890Z,99649.31
2022-12-28T19:30:10.629Z,99661.22
2022-12-28T19:32:37.175Z,99655.84
2022-12-28T19:35:03.823Z,99660.75
2022-12-28T19:37:30.317Z,99665.63
2022-12-28T19:39:58.066Z,99662.09
2022-12-28T19:42:24.664Z,99656.50
2022-12-28T19:44:51.186Z,99651.66
2022-12-28T19:47:17.631Z,99641.47
2022-12-28T19:49:44.067Z,99650.63
2022-12-28T19:52:10.441Z,99644.72
2022-12-28T19:54:37.676Z,99650.69
2022-12-28T19:57:04.190Z,99640.47
2022-12-28T19:59:30.772Z,99644.25
2022-12-28T20:01:57.342Z,99648.06
2022-12-28T20:04:23.853Z,99633.97
2022-12-28T20:06:50.373Z,99640.00
2022-12-28T20:09:16.867Z,99627.59
2022-12-28T20:11:45.069Z,99646.75
2022-12-28T20:14:13.777Z,99611.44
2022-12-28T20:16:40.465Z,99620.06
2022-12-28T20:19:08.327Z,99607.44
2022-12-28T20:21:36.082Z,99609.28
2022-12-28T20:24:02.946Z,99617.16
2022-12-28T20:26:29.984Z,99597.47
2022-12-28T20:28:57.658Z,99608.31
2022-12-28T20:31:24.299Z,99581.38
2022-12-28T20:33:51.110Z,99583.00
2022-12-28T20:36:22.176Z,99573.88
2022-12-28T20:38:48.973Z,99572.25
2022-12-28T20:41:35.694Z,99581.13
2022-12-28T20:44:04.367Z,99566.53
2022-12-28T20:46:31.080Z,99571.41
2022-12-28T20:48:59.188Z,99563.56
2022-12-28T20:51:25.844Z,99553.13
2022-12-28T20:53:52.370Z,99558.72
2022-12-28T20:56:18.825Z,99549.63
2022-12-28T20:58:45.265Z,99550.69
2022-12-28T21:01:13.093Z,99545.19
2022-12-28T21:03:39.743Z,99534.03
2022-12-28T21:06:06.805Z,99566.53
2022-12-28T21:08:33.322Z,99518.91
2022-12-28T21:11:00.268Z,99531.28
2022-12-28T21:13:26.818Z,99520.00
2022-12-28T21:15:53.345Z,99517.53
2022-12-28T21:18:20.223Z,99515.94
2022-12-28T21:20:47.613Z,99504.78
2022-12-28T21:23:14.690Z,99498.41
2022-12-28T21:25:41.171Z,99494.88
2022-12-28T21:28:07.638Z,99506.50
2022-12-28T21:30:34.080Z,99455.78
2022-12-28T21:33:00.562Z,99463.41
2022-12-28T21:35:33.698Z,99484.13
2022-12-28T21:38:00.716Z,99480.38
2022-12-28T21:40:27.162Z,99466.59
2022-12-28T21:42:53.625Z,99483.56
2022-12-28T21:45:20.088Z,99493.50
2022-12-28T21:47:46.568Z,99461.72
2022-12-28T21:50:13.043Z,99460.72
2022-12-28T21:52:39.587Z,99451.00
2022-12-28T21:55:25.014Z,99475.50
2022-12-28T21:57:52.168Z,99428.66
2022-12-28T22:00:37.887Z,99446.13
2022-12-28T22:03:23.062Z,99444.00
2022-12-28T22:06:05.103Z,99433.72
2022-12-28T22:08:50.877Z,99452.63
2022-12-28T22:11:36.099Z,99424.06
2022-12-28T22:14:02.514Z,99419.22
2022-12-28T22:16:31.162Z,99420.38
2022-12-28T22:19:02.543Z,99422.44
2022-12-28T22:21:29.972Z,99450.19
2022-12-28T22:23:56.530Z,99434.34
2022-12-28T22:26:23.360Z,99460.97
2022-12-28T22:28:49.817Z,99437.59
2022-12-28T22:31:16.346Z,99479.63
2022-12-28T22:33:42.823Z,99478.25
2022-12-28T22:36:16.652Z,99446.78
2022-12-28T22:38:43.098Z,99431.19
2022-12-28T22:41:09.613Z,99443.53
2022-12-28T22:43:36.144Z,99422.50
2022-12-28T22:46:09.772Z,99423.06
2022-12-28T22:48:36.282Z,99419.53
2022-12-28T22:51:07.224Z,99420.72
2022-12-28T22:53:33.810Z,99420.91
2022-12-28T22:56:01.419Z,99443.09
2022-12-28T22:58:28.344Z,99430.16
2022-12-28T23:01:11.082Z,99426.41
2022-12-28T23:03:38.571Z,99431.81
2022-12-28T23:06:05.734Z,99428.03
2022-12-28T23:08:32.264Z,99439.66
2022-12-28T23:11:00.225Z,99433.72
2022-12-28T23:13:27.071Z,99441.78
2022-12-28T23:16:04.637Z,99417.88
2022-12-28T23:18:49.925Z,99413.31
2022-12-28T23:21:36.728Z,99413.59
2022-12-28T23:24:22.195Z,99393.34
2022-12-28T23:27:07.504Z,99385.84
2022-12-28T23:29:33.940Z,99383.69
2022-12-28T23:32:00.461Z,99383.41
2022-12-28T23:34:27.006Z,99392.34
2022-12-28T23:39:22.686Z,99384.25
2022-12-28T23:41:52.302Z,99396.41
2022-12-28T23:44:24.143Z,99375.91
2022-12-28T23:46:58.256Z,99371.91
2022-12-28T23:49:25.685Z,99368.94
2022-12-28T23:51:52.225Z,99365.72
2022-12-28T23:54:19.319Z,99354.41
2022-12-28T23:56:45.971Z,99367.31
2022-12-28T23:59:12.626Z,99360.84
